Time;durP1;ratioP1;P1;durP2;ratioP2;P2;SDS_P1;SDS_P2;PMS_P1;PMS_P2;Temp;Humidity;BMP_temperature;BMP_pressure;BME280_temperature;BME280_humidity;BME280_pressure;Samples;Min_cycle;Max_cycle;Signal;HPM_P1;HPM_P2
2020/12/15 00:00:44;;;;;;;18.53;10.23;;;3.90;99.90;;;;;;4143028;28;20278;-57
2020/12/15 00:02:46;;;;;;;20.83;9.83;;;4.00;99.90;;;;;;4142260;28;20279;-43
2020/12/15 00:04:47;;;;;;;19.43;10.10;;;3.90;99.90;;;;;;4142740;28;21123;-53
2020/12/15 00:06:48;;;;;;;19.63;10.37;;;3.90;99.90;;;;;;4142320;28;20295;-43
2020/12/15 00:08:50;;;;;;;24.40;11.30;;;3.80;99.90;;;;;;4140455;28;20740;-44
2020/12/15 00:10:51;;;;;;;21.23;9.53;;;3.80;99.90;;;;;;4141209;28;20343;-46
2020/12/15 00:12:53;;;;;;;18.13;10.13;;;3.80;99.90;;;;;;4141244;28;20275;-43
2020/12/15 00:14:54;;;;;;;17.33;9.57;;;3.90;99.90;;;;;;4141750;28;20338;-43
2020/12/15 00:16:58;;;;;;;19.33;9.90;;;3.80;99.90;;;;;;4141451;28;20353;-42
2020/12/15 00:19:00;;;;;;;17.30;9.20;;;3.80;99.90;;;;;;4126884;28;20276;-42
2020/12/15 00:21:01;;;;;;;18.43;10.53;;;3.80;99.90;;;;;;4140766;28;20322;-42
2020/12/15 00:23:02;;;;;;;20.93;10.90;;;3.80;99.90;;;;;;4141957;28;20295;-46
2020/12/15 00:25:04;;;;;;;20.87;10.37;;;3.70;99.90;;;;;;4140869;28;20267;-49
2020/12/15 00:27:05;;;;;;;24.70;11.00;;;3.70;99.90;;;;;;4141754;28;20364;-49
2020/12/15 00:29:06;;;;;;;23.83;10.43;;;3.70;99.90;;;;;;4138748;28;20268;-43
2020/12/15 00:31:07;;;;;;;26.00;11.53;;;3.70;99.90;;;;;;4125581;28;20675;-43
2020/12/15 00:33:09;;;;;;;19.63;10.13;;;3.70;99.90;;;;;;4138918;28;20279;-43
2020/12/15 00:35:10;;;;;;;23.60;10.20;;;3.70;99.90;;;;;;4139814;28;20287;-57
2020/12/15 00:37:11;;;;;;;18.40;10.27;;;3.70;99.90;;;;;;4138221;28;20362;-45
2020/12/15 00:39:13;;;;;;;20.67;9.90;;;3.70;99.90;;;;;;4124704;28;20348;-46
2020/12/15 00:41:14;;;;;;;18.60;9.67;;;3.70;99.90;;;;;;4125701;28;20276;-43
2020/12/15 00:43:15;;;;;;;20.00;9.63;;;3.60;99.90;;;;;;4124820;28;20791;-44
2020/12/15 00:45:17;;;;;;;18.23;9.10;;;3.60;99.90;;;;;;4126275;28;20294;-43
2020/12/15 00:47:18;;;;;;;20.17;9.77;;;3.70;99.90;;;;;;4127902;28;20303;-43
2020/12/15 00:49:19;;;;;;;26.23;10.43;;;3.70;99.90;;;;;;4142004;28;20515;-57
2020/12/15 00:51:20;;;;;;;18.47;10.07;;;3.70;99.90;;;;;;4140642;28;20747;-43
2020/12/15 00:53:21;;;;;;;18.17;9.67;;;3.60;99.90;;;;;;4141497;28;20302;-51
2020/12/15 00:55:22;;;;;;;22.27;10.63;;;3.60;99.90;;;;;;4140516;28;20330;-41
2020/12/15 00:57:24;;;;;;;23.30;10.33;;;3.70;99.90;;;;;;4136271;28;20827;-56
2020/12/15 00:59:25;;;;;;;23.37;10.73;;;3.70;99.90;;;;;;4125255;28;20319;-41
2020/12/15 01:01:26;;;;;;;21.03;11.07;;;3.60;99.90;;;;;;4124459;28;20305;-43
2020/12/15 01:03:27;;;;;;;23.87;11.10;;;3.70;99.90;;;;;;4125723;28;20272;-42
2020/12/15 01:05:28;;;;;;;22.50;11.23;;;3.60;99.90;;;;;;4139631;28;20337;-43
2020/12/15 01:07:29;;;;;;;21.00;10.33;;;3.60;99.90;;;;;;4136463;28;21315;-47
2020/12/15 01:09:30;;;;;;;19.90;9.73;;;3.60;99.90;;;;;;4123677;28;20272;-41
2020/12/15 01:11:31;;;;;;;21.50;10.33;;;3.60;99.90;;;;;;4125344;28;20348;-48
2020/12/15 01:13:32;;;;;;;17.53;10.00;;;3.60;99.90;;;;;;4123996;28;20276;-43
2020/12/15 01:15:35;;;;;;;22.50;10.53;;;3.60;99.90;;;;;;4138886;28;20279;-42
2020/12/15 01:17:36;;;;;;;19.47;9.90;;;3.50;99.90;;;;;;4139869;28;20740;-52
2020/12/15 01:19:37;;;;;;;20.03;10.93;;;3.50;99.90;;;;;;4141414;28;20275;-52
2020/12/15 01:21:38;;;;;;;18.93;9.67;;;3.50;99.90;;;;;;4137226;28;20330;-43
2020/12/15 01:23:39;;;;;;;22.40;11.00;;;3.50;99.90;;;;;;4125674;28;20267;-49
2020/12/15 01:25:40;;;;;;;19.00;9.87;;;3.50;99.90;;;;;;4124618;28;20310;-46
2020/12/15 01:27:41;;;;;;;20.83;10.27;;;3.50;99.90;;;;;;4124418;28;20350;-50
2020/12/15 01:29:42;;;;;;;20.17;9.30;;;3.50;99.90;;;;;;4128539;28;20283;-46
2020/12/15 01:31:43;;;;;;;21.57;9.83;;;3.50;99.90;;;;;;4136603;28;20326;-46
2020/12/15 01:33:45;;;;;;;20.53;10.77;;;3.50;99.90;;;;;;4124856;28;20335;-45
2020/12/15 01:35:46;;;;;;;22.20;11.47;;;3.50;99.90;;;;;;4123626;28;20715;-46
2020/12/15 01:37:47;;;;;;;20.93;9.53;;;3.50;99.90;;;;;;4133244;28;20333;-53
2020/12/15 01:39:48;;;;;;;23.33;10.23;;;3.50;99.90;;;;;;4135008;28;20330;-43
2020/12/15 01:41:50;;;;;;;23.77;11.53;;;3.50;99.90;;;;;;4141422;28;20885;-46
2020/12/15 01:44:01;;;;;;;23.47;10.90;;;3.50;99.90;;;;;;4139654;28;20335;-48
2020/12/15 01:46:03;;;;;;;22.80;10.80;;;3.50;99.90;;;;;;4141887;28;20322;-43
2020/12/15 01:48:04;;;;;;;21.20;11.07;;;3.50;99.90;;;;;;4139832;28;20299;-54
2020/12/15 01:50:05;;;;;;;23.40;10.00;;;3.50;99.90;;;;;;4127263;28;20847;-48
2020/12/15 01:52:06;;;;;;;21.80;10.27;;;3.50;99.90;;;;;;4123829;28;20330;-48
2020/12/15 01:54:07;;;;;;;22.87;10.70;;;3.50;99.90;;;;;;4126638;28;20330;-43
2020/12/15 01:56:10;;;;;;;19.23;9.57;;;3.50;99.90;;;;;;4124305;28;20252;-46
2020/12/15 01:58:11;;;;;;;20.93;9.60;;;3.50;99.90;;;;;;4133629;28;20702;-50
2020/12/15 02:00:12;;;;;;;17.80;9.03;;;3.50;99.90;;;;;;4140181;28;20731;-47
2020/12/15 02:02:13;;;;;;;21.27;10.57;;;3.50;99.90;;;;;;4140901;28;20275;-43
2020/12/15 02:04:14;;;;;;;20.43;10.00;;;3.50;99.90;;;;;;4140722;28;20302;-46
2020/12/15 02:06:17;;;;;;;18.90;8.60;;;3.50;99.90;;;;;;4136060;28;20310;-42
2020/12/15 02:08:18;;;;;;;20.70;9.60;;;3.50;99.90;;;;;;4130245;28;20744;-44
2020/12/15 02:10:19;;;;;;;21.97;9.67;;;3.40;99.90;;;;;;4129719;28;20295;-52
2020/12/15 02:12:20;;;;;;;22.87;10.17;;;3.40;99.90;;;;;;4123030;28;20288;-43
2020/12/15 02:14:22;;;;;;;19.03;9.83;;;3.50;99.90;;;;;;4149919;28;21199;-44
2020/12/15 02:16:23;;;;;;;19.47;9.57;;;3.40;99.90;;;;;;4157572;28;20748;-48
2020/12/15 02:18:26;;;;;;;18.77;9.67;;;3.40;99.90;;;;;;4141382;28;20821;-43
2020/12/15 02:20:27;;;;;;;21.47;10.57;;;3.40;99.90;;;;;;4140627;28;20695;-45
2020/12/15 02:22:28;;;;;;;23.97;10.33;;;3.50;99.90;;;;;;4139627;28;20325;-43
2020/12/15 02:24:29;;;;;;;21.53;11.03;;;3.50;99.90;;;;;;4141250;28;20271;-43
2020/12/15 02:26:31;;;;;;;20.33;9.83;;;3.50;99.90;;;;;;4139739;28;20702;-43
2020/12/15 02:28:33;;;;;;;22.07;10.40;;;3.50;99.90;;;;;;4156431;28;20274;-47
2020/12/15 02:30:34;;;;;;;24.03;10.00;;;3.50;99.90;;;;;;4155239;28;20561;-49
2020/12/15 02:32:35;;;;;;;21.77;10.50;;;3.50;99.90;;;;;;4154513;28;20278;-43
2020/12/15 02:34:36;;;;;;;21.90;10.63;;;3.50;99.90;;;;;;4146367;28;20267;-44
2020/12/15 02:36:38;;;;;;;19.87;8.37;;;3.50;99.90;;;;;;4140216;28;20275;-44
2020/12/15 02:38:39;;;;;;;19.40;9.53;;;3.50;99.90;;;;;;4140591;28;20268;-45
2020/12/15 02:40:40;;;;;;;19.70;10.07;;;3.50;99.90;;;;;;4139719;28;20252;-58
2020/12/15 02:42:41;;;;;;;18.13;9.47;;;3.50;99.90;;;;;;4140867;28;20329;-42
2020/12/15 02:44:42;;;;;;;15.97;8.77;;;3.50;99.90;;;;;;4149859;28;20758;-55
2020/12/15 02:46:43;;;;;;;19.53;9.47;;;3.50;99.90;;;;;;4155902;28;20324;-43
2020/12/15 02:48:44;;;;;;;19.70;9.03;;;3.50;99.90;;;;;;4154016;28;20274;-46
2020/12/15 02:50:47;;;;;;;21.30;9.57;;;3.50;99.90;;;;;;4157073;28;20270;-44
2020/12/15 02:52:48;;;;;;;20.97;9.33;;;3.50;99.90;;;;;;4137425;28;20283;-43
2020/12/15 02:54:50;;;;;;;18.53;9.10;;;3.50;99.90;;;;;;4145709;28;20778;-49
2020/12/15 02:56:54;;;;;;;23.87;10.23;;;3.50;99.90;;;;;;4138972;28;20326;-51
2020/12/15 02:58:55;;;;;;;23.63;10.83;;;3.50;99.90;;;;;;4140659;28;20333;-46
2020/12/15 03:00:57;;;;;;;24.73;11.50;;;3.50;99.90;;;;;;4125454;28;20276;-43
2020/12/15 03:02:58;;;;;;;23.20;11.00;;;3.50;99.90;;;;;;4143242;28;20275;-45
2020/12/15 03:04:59;;;;;;;27.37;10.10;;;3.50;99.90;;;;;;4145490;28;20275;-45
2020/12/15 03:07:00;;;;;;;18.33;8.80;;;3.50;99.90;;;;;;4141745;28;20787;-53
2020/12/15 03:09:04;;;;;;;20.60;9.77;;;3.50;99.90;;;;;;4142728;28;20275;-44
2020/12/15 03:11:06;;;;;;;20.10;9.43;;;3.50;99.90;;;;;;4142046;28;20334;-45
2020/12/15 03:13:07;;;;;;;22.60;9.97;;;3.50;99.90;;;;;;4147191;28;20336;-51
2020/12/15 03:15:08;;;;;;;22.10;10.30;;;3.50;99.90;;;;;;4157509;28;20267;-50
2020/12/15 03:17:09;;;;;;;25.10;10.57;;;3.50;99.90;;;;;;4159907;28;20269;-45
2020/12/15 03:19:10;;;;;;;24.20;10.33;;;3.50;99.90;;;;;;4157822;28;20344;-43
2020/12/15 03:21:15;;;;;;;30.37;13.30;;;3.50;99.90;;;;;;4159877;28;20267;-41
2020/12/15 03:23:18;;;;;;;29.77;12.87;;;3.50;99.90;;;;;;4141318;28;21075;-44
2020/12/15 03:25:20;;;;;;;30.13;12.07;;;3.40;99.90;;;;;;4142453;28;20279;-43
2020/12/15 03:27:21;;;;;;;25.03;11.43;;;3.50;99.90;;;;;;4140069;28;20307;-45
2020/12/15 03:29:22;;;;;;;28.10;12.23;;;3.50;99.90;;;;;;4149839;28;20317;-44
2020/12/15 03:31:23;;;;;;;26.07;11.73;;;3.50;99.90;;;;;;4158424;28;20267;-45
2020/12/15 03:33:24;;;;;;;17.13;8.83;;;3.50;99.90;;;;;;4158736;28;20657;-57
2020/12/15 03:35:27;;;;;;;22.83;10.30;;;3.40;99.90;;;;;;4150576;28;20271;-43
2020/12/15 03:37:28;;;;;;;17.60;8.03;;;3.50;99.90;;;;;;4156027;28;20336;-48
2020/12/15 03:39:31;;;;;;;18.63;8.50;;;3.50;99.90;;;;;;4151547;28;20303;-43
2020/12/15 03:41:33;;;;;;;18.63;9.20;;;3.40;99.90;;;;;;4157454;28;20286;-49
2020/12/15 03:43:34;;;;;;;19.37;9.50;;;3.50;99.90;;;;;;4158751;28;20267;-44
2020/12/15 03:45:35;;;;;;;20.60;8.73;;;3.50;99.90;;;;;;4158133;28;20267;-49
2020/12/15 03:47:36;;;;;;;20.70;8.97;;;3.50;99.90;;;;;;4143362;28;20311;-45
2020/12/15 03:49:37;;;;;;;22.40;10.43;;;3.50;99.90;;;;;;4141465;28;20279;-46
2020/12/15 03:51:38;;;;;;;17.67;9.10;;;3.60;99.90;;;;;;4142211;28;20279;-43
2020/12/15 03:53:39;;;;;;;22.43;9.30;;;3.60;99.90;;;;;;4141584;28;20267;-46
2020/12/15 03:55:40;;;;;;;19.50;9.17;;;3.60;99.90;;;;;;4142795;28;20814;-48
2020/12/15 03:57:41;;;;;;;18.43;8.90;;;3.60;99.90;;;;;;4156905;28;20290;-44
2020/12/15 03:59:43;;;;;;;21.20;9.83;;;3.70;99.90;;;;;;4158707;28;20290;-55
2020/12/15 04:01:44;;;;;;;22.63;10.10;;;3.70;99.90;;;;;;4155754;28;20275;-43
2020/12/15 04:03:45;;;;;;;21.80;9.40;;;3.70;99.90;;;;;;4158095;28;20286;-52
2020/12/15 04:05:46;;;;;;;22.47;10.57;;;3.80;99.90;;;;;;4156704;28;20805;-49
2020/12/15 04:07:48;;;;;;;20.67;8.33;;;3.80;99.90;;;;;;4142263;28;21278;-53
2020/12/15 04:09:49;;;;;;;19.30;8.70;;;3.80;99.90;;;;;;4150227;28;20279;-44
2020/12/15 04:11:50;;;;;;;19.90;10.23;;;3.80;99.90;;;;;;4150040;28;21216;-47
2020/12/15 04:13:52;;;;;;;22.40;11.73;;;3.80;99.90;;;;;;4141745;28;20260;-44
2020/12/15 04:15:53;;;;;;;16.60;8.97;;;3.80;99.90;;;;;;4140941;28;20287;-46
2020/12/15 04:17:54;;;;;;;19.27;10.03;;;3.80;99.90;;;;;;4158628;28;20271;-48
2020/12/15 04:19:56;;;;;;;17.80;8.53;;;3.80;99.90;;;;;;4156417;28;20266;-52
2020/12/15 04:21:58;;;;;;;15.67;8.83;;;3.90;99.90;;;;;;4158184;28;20321;-47
2020/12/15 04:23:59;;;;;;;16.43;8.63;;;3.90;99.90;;;;;;4156489;28;20271;-54
2020/12/15 04:26:01;;;;;;;13.77;8.23;;;3.90;99.90;;;;;;4147611;28;20283;-49
2020/12/15 04:28:02;;;;;;;19.20;9.80;;;4.00;99.90;;;;;;4140669;28;20299;-49
2020/12/15 04:30:05;;;;;;;23.00;9.27;;;3.90;99.90;;;;;;4143901;28;20337;-46
2020/12/15 04:32:06;;;;;;;20.17;10.37;;;4.00;99.90;;;;;;4157171;28;21030;-54
2020/12/15 04:34:07;;;;;;;21.47;9.43;;;4.00;99.90;;;;;;4158422;28;20267;-48
2020/12/15 04:36:08;;;;;;;18.67;9.13;;;3.90;99.90;;;;;;4143827;28;20318;-41
2020/12/15 04:38:11;;;;;;;15.83;7.53;;;4.00;99.90;;;;;;4140793;28;20291;-47
2020/12/15 04:40:13;;;;;;;15.77;7.90;;;4.00;99.90;;;;;;4141528;28;20325;-46
2020/12/15 04:42:14;;;;;;;17.20;8.23;;;3.90;99.90;;;;;;4156963;28;20266;-59
2020/12/15 04:44:16;;;;;;;17.27;7.33;;;3.90;99.90;;;;;;4157393;28;20278;-48
2020/12/15 04:46:22;;;;;;;16.83;8.70;;;4.00;99.90;;;;;;4141364;28;20283;-45
2020/12/15 04:48:24;;;;;;;17.20;8.83;;;4.00;99.90;;;;;;4140944;28;20381;-47
2020/12/15 04:50:34;;;;;;;17.33;8.83;;;4.00;99.90;;;;;;4140553;28;20341;-41
2020/12/15 04:52:59;;;;;;;22.85;8.20;;;4.00;99.90;;;;;;4142028;28;20284;-44
2020/12/15 04:55:00;;;;;;;16.13;7.47;;;4.00;99.90;;;;;;4142367;28;20045;-44
2020/12/15 04:57:03;;;;;;;12.10;7.20;;;4.00;99.90;;;;;;4156102;28;20266;-45
2020/12/15 04:59:11;;;;;;;16.77;8.20;;;4.00;99.90;;;;;;4155338;28;20331;-43
2020/12/15 05:01:13;;;;;;;16.43;7.73;;;4.00;99.90;;;;;;4156970;28;20329;-43
2020/12/15 05:03:21;;;;;;;17.63;7.90;;;3.90;99.90;;;;;;4156651;28;20329;-46
2020/12/15 05:05:23;;;;;;;11.90;7.47;;;4.00;99.90;;;;;;4151727;28;20339;-45
2020/12/15 05:07:24;;;;;;;18.50;8.10;;;4.00;99.90;;;;;;4140483;28;20354;-46
2020/12/15 05:09:29;;;;;;;19.63;7.40;;;4.00;99.90;;;;;;4140943;28;20267;-42
2020/12/15 05:11:31;;;;;;;14.87;6.60;;;4.00;99.90;;;;;;4150960;28;20294;-44
2020/12/15 05:13:33;;;;;;;13.67;6.53;;;4.00;99.90;;;;;;4157635;28;20384;-53
2020/12/15 05:15:35;;;;;;;12.40;6.77;;;4.00;99.90;;;;;;4153024;28;20832;-51
2020/12/15 05:17:36;;;;;;;14.03;6.43;;;3.90;99.90;;;;;;4148572;28;20381;-45
2020/12/15 05:19:44;;;;;;;18.33;6.70;;;3.90;99.90;;;;;;4140268;28;20267;-46
2020/12/15 05:21:53;;;;;;;17.33;8.13;;;4.00;99.90;;;;;;4141129;28;20809;-49
2020/12/15 05:23:55;;;;;;;12.93;7.63;;;4.00;99.90;;;;;;4139874;28;20659;-49
2020/12/15 05:26:03;;;;;;;13.30;7.03;;;4.00;99.90;;;;;;4140999;28;20357;-42
2020/12/15 05:28:12;;;;;;;15.90;7.37;;;4.00;99.90;;;;;;4139891;28;20698;-52
2020/12/15 05:30:14;;;;;;;15.20;6.70;;;4.10;99.90;;;;;;4141218;28;20271;-49
2020/12/15 05:32:17;;;;;;;15.20;7.43;;;4.10;99.90;;;;;;4122384;28;20272;-43
2020/12/15 05:34:23;;;;;;;11.80;6.83;;;4.10;99.90;;;;;;4140837;28;20255;-56
2020/12/15 05:36:25;;;;;;;15.27;7.03;;;4.10;99.90;;;;;;4139214;28;20263;-47
2020/12/15 05:38:26;;;;;;;16.40;7.70;;;4.00;99.90;;;;;;4140197;28;20279;-44
2020/12/15 05:40:28;;;;;;;14.37;8.10;;;4.00;99.90;;;;;;4140775;28;21138;-48
2020/12/15 05:42:31;;;;;;;14.07;8.63;;;4.00;99.90;;;;;;4139876;28;20670;-47
2020/12/15 05:44:36;;;;;;;17.73;9.17;;;3.90;99.90;;;;;;4140424;28;20325;-42
2020/12/15 05:46:46;;;;;;;15.13;8.10;;;3.90;99.90;;;;;;4139534;28;20279;-43
2020/12/15 05:48:51;;;;;;;15.77;7.85;;;3.90;99.90;;;;;;4144582;28;20361;-45
2020/12/15 05:50:57;;;;;;;15.17;7.27;;;3.90;99.90;;;;;;4138358;28;20775;-44
2020/12/15 05:52:59;;;;;;;18.63;8.67;;;3.90;99.90;;;;;;4139964;28;20275;-46
2020/12/15 05:55:05;;;;;;;14.87;7.80;;;3.90;99.90;;;;;;4139422;28;20712;-44
2020/12/15 05:57:08;;;;;;;16.27;8.83;;;4.00;99.90;;;;;;4140556;28;20752;-44
2020/12/15 05:59:20;;;;;;;16.67;8.27;;;4.00;99.90;;;;;;4121788;28;20351;-52
2020/12/15 06:01:21;;;;;;;15.67;8.03;;;4.00;99.90;;;;;;4140680;28;20390;-42
2020/12/15 06:03:22;;;;;;;16.17;7.80;;;4.00;99.90;;;;;;4139164;28;20275;-48
2020/12/15 06:05:29;;;;;;;20.37;7.30;;;4.00;99.90;;;;;;4140559;28;20269;-54
2020/12/15 06:07:34;;;;;;;15.30;8.33;;;4.00;99.90;;;;;;4139291;28;20272;-45
2020/12/15 06:09:36;;;;;;;15.20;7.80;;;4.00;99.90;;;;;;4140528;28;20306;-60
2020/12/15 06:11:39;;;;;;;13.80;7.70;;;4.00;99.90;;;;;;4139492;28;20329;-53
2020/12/15 06:13:42;;;;;;;16.27;7.63;;;4.10;99.90;;;;;;4140457;28;20275;-46
2020/12/15 06:15:44;;;;;;;16.57;7.70;;;4.10;99.90;;;;;;4139299;28;20275;-62
2020/12/15 06:17:50;;;;;;;13.63;7.63;;;4.00;99.90;;;;;;4140559;28;20275;-44
2020/12/15 06:19:52;;;;;;;15.30;7.47;;;4.00;99.90;;;;;;4139097;28;20271;-51
2020/12/15 06:21:56;;;;;;;18.17;9.27;;;4.00;99.90;;;;;;4139399;28;20410;-47
2020/12/15 06:23:59;;;;;;;15.20;7.67;;;3.90;99.90;;;;;;4140690;28;20330;-50
2020/12/15 06:26:00;;;;;;;15.90;7.50;;;3.90;99.90;;;;;;4139724;28;20267;-45
2020/12/15 06:28:19;;;;;;;16.47;8.50;;;3.90;99.90;;;;;;4139789;28;20299;-53
2020/12/15 06:30:28;;;;;;;17.63;8.37;;;3.90;99.90;;;;;;4149675;28;20352;-45
2020/12/15 06:32:30;;;;;;;15.30;8.00;;;3.90;99.90;;;;;;4152265;28;20259;-53
2020/12/15 06:34:31;;;;;;;16.17;8.27;;;3.90;99.90;;;;;;4155812;28;20347;-52
2020/12/15 06:36:34;;;;;;;17.90;9.70;;;3.90;99.90;;;;;;4158645;28;20785;-61
2020/12/15 06:38:37;;;;;;;14.97;8.30;;;3.90;99.90;;;;;;4154412;28;20321;-62
2020/12/15 06:40:44;;;;;;;14.53;8.17;;;4.00;99.90;;;;;;4159209;28;20289;-62
2020/12/15 06:42:54;;;;;;;14.17;8.40;;;4.00;99.90;;;;;;4157238;28;20773;-46
2020/12/15 06:45:07;;;;;;;15.30;8.13;;;4.00;99.90;;;;;;4159307;28;20275;-49
2020/12/15 06:47:08;;;;;;;14.23;7.93;;;3.90;99.90;;;;;;4156988;28;20111;-44
2020/12/15 06:49:10;;;;;;;21.10;10.43;;;3.90;99.90;;;;;;4144075;28;20349;-59
2020/12/15 06:51:12;;;;;;;16.37;8.77;;;3.90;99.90;;;;;;4141453;28;20267;-36
2020/12/15 06:53:18;;;;;;;17.27;8.50;;;3.90;99.90;;;;;;4144863;28;20291;-53
2020/12/15 06:55:31;;;;;;;17.07;9.33;;;3.90;99.90;;;;;;4142011;28;20731;-49
2020/12/15 06:57:34;;;;;;;14.47;8.73;;;3.80;99.90;;;;;;4143869;28;20337;-42
2020/12/15 06:59:39;;;;;;;17.10;9.20;;;3.80;99.90;;;;;;4150967;28;20332;-56
2020/12/15 07:01:41;;;;;;;20.53;10.40;;;3.90;99.90;;;;;;4159119;28;20266;-36
2020/12/15 07:03:45;;;;;;;24.17;11.03;;;3.80;99.90;;;;;;4155377;28;20358;-34
2020/12/15 07:05:46;;;;;;;21.57;10.47;;;3.80;99.90;;;;;;4159891;28;20761;-49
2020/12/15 07:07:52;;;;;;;19.23;10.20;;;3.80;99.90;;;;;;4154404;28;20678;-41
2020/12/15 07:09:57;;;;;;;19.63;11.27;;;3.80;99.90;;;;;;4145585;28;20349;-46
2020/12/15 07:11:58;;;;;;;18.40;9.80;;;3.80;99.90;;;;;;4143991;28;20287;-40
2020/12/15 07:14:01;;;;;;;18.47;10.30;;;3.80;99.90;;;;;;4142070;28;20268;-43
2020/12/15 07:16:03;;;;;;;17.33;9.27;;;3.80;99.90;;;;;;4158570;28;20341;-51
2020/12/15 07:18:05;;;;;;;18.50;9.20;;;3.90;99.90;;;;;;4156622;28;20325;-36
2020/12/15 07:20:07;;;;;;;19.60;9.63;;;4.00;99.90;;;;;;4142289;28;20740;-40
2020/12/15 07:22:08;;;;;;;19.33;10.67;;;3.90;99.90;;;;;;4141932;28;20996;-42
2020/12/15 07:24:13;;;;;;;20.27;9.40;;;3.90;99.90;;;;;;4142248;28;20275;-45
2020/12/15 07:26:16;;;;;;;19.67;10.23;;;3.90;99.90;;;;;;4142114;28;20326;-44
2020/12/15 07:28:17;;;;;;;20.53;11.07;;;4.00;99.90;;;;;;4142845;28;20385;-36
2020/12/15 07:30:22;;;;;;;24.97;13.53;;;3.90;99.90;;;;;;4142210;28;20744;-48
2020/12/15 07:32:23;;;;;;;23.47;11.40;;;3.90;99.90;;;;;;4125414;28;20283;-48
2020/12/15 07:34:24;;;;;;;22.70;12.60;;;3.90;99.90;;;;;;4141862;28;20272;-42
2020/12/15 07:36:25;;;;;;;22.47;13.30;;;4.00;99.90;;;;;;4143037;28;20675;-39
2020/12/15 07:38:27;;;;;;;19.07;11.67;;;3.90;99.90;;;;;;4141856;28;20284;-38
2020/12/15 07:40:29;;;;;;;19.37;10.73;;;4.00;99.90;;;;;;4143137;28;20272;-41
2020/12/15 07:42:31;;;;;;;19.47;10.97;;;4.00;99.90;;;;;;4141725;28;20345;-39
2020/12/15 07:44:32;;;;;;;22.53;10.30;;;4.00;99.90;;;;;;4143251;28;20333;-37
2020/12/15 07:46:33;;;;;;;23.03;12.60;;;3.90;99.90;;;;;;4156840;28;20279;-44
2020/12/15 07:48:36;;;;;;;22.80;12.37;;;4.00;99.90;;;;;;4157481;28;21073;-39
2020/12/15 07:50:37;;;;;;;16.50;10.33;;;4.00;99.90;;;;;;4141325;28;20732;-38
2020/12/15 07:52:40;;;;;;;19.87;10.93;;;4.00;99.90;;;;;;4142595;28;20275;-48
2020/12/15 07:54:42;;;;;;;17.90;9.13;;;4.00;99.90;;;;;;4142387;28;20267;-38
2020/12/15 07:56:45;;;;;;;26.67;10.83;;;4.00;99.90;;;;;;4141853;28;20734;-41
2020/12/15 07:58:50;;;;;;;17.27;8.27;;;4.00;99.90;;;;;;4141026;28;20702;-40
2020/12/15 08:00:55;;;;;;;18.00;8.50;;;4.10;99.90;;;;;;4148501;28;20428;-49
2020/12/15 08:03:02;;;;;;;21.00;9.57;;;4.10;99.90;;;;;;4158746;28;20275;-38
2020/12/15 08:05:06;;;;;;;17.10;8.60;;;4.10;99.90;;;;;;4139797;28;20346;-40
2020/12/15 08:07:11;;;;;;;16.97;8.40;;;4.10;99.90;;;;;;4156324;28;20674;-38
2020/12/15 08:09:15;;;;;;;15.10;8.43;;;4.10;99.90;;;;;;4140785;28;20295;-42
2020/12/15 08:11:19;;;;;;;14.90;8.53;;;4.10;99.90;;;;;;4141757;28;20307;-36
2020/12/15 08:13:20;;;;;;;17.57;9.07;;;4.10;99.90;;;;;;4141044;28;20287;-38
2020/12/15 08:15:22;;;;;;;21.30;9.07;;;4.10;99.90;;;;;;4141872;28;20342;-43
2020/12/15 08:17:24;;;;;;;15.63;8.17;;;4.10;99.90;;;;;;4141183;28;20869;-43
2020/12/15 08:19:25;;;;;;;12.53;6.80;;;4.10;99.90;;;;;;4141990;28;20267;-37
2020/12/15 08:21:50;;;;;;;13.37;7.60;;;4.10;99.90;;;;;;4140886;28;20283;-38
2020/12/15 08:23:54;;;;;;;11.53;6.00;;;4.10;99.90;;;;;;4141213;28;21086;-40
2020/12/15 08:25:57;;;;;;;14.27;6.67;;;4.10;99.90;;;;;;4157472;28;20313;-37
2020/12/15 08:28:24;;;;;;;15.03;7.50;;;4.10;99.90;;;;;;4157086;28;20841;-36
2020/12/15 08:30:25;;;;;;;17.60;7.67;;;4.10;99.90;;;;;;4145912;28;20344;-36
2020/12/15 08:32:30;;;;;;;11.43;6.37;;;4.10;99.90;;;;;;4156367;28;20717;-41
2020/12/15 08:34:31;;;;;;;13.93;6.73;;;4.10;99.90;;;;;;4155515;28;20393;-38
2020/12/15 08:36:43;;;;;;;10.87;5.93;;;4.00;99.90;;;;;;4158394;28;20333;-39
2020/12/15 08:38:44;;;;;;;10.77;4.70;;;4.10;99.90;;;;;;4154526;28;20332;-38
2020/12/15 08:40:59;;;;;;;11.57;5.70;;;4.10;99.90;;;;;;4156683;28;20325;-35
2020/12/15 08:43:03;;;;;;;12.40;5.10;;;4.00;99.90;;;;;;4152987;28;20762;-39
2020/12/15 08:45:12;;;;;;;9.30;5.13;;;4.10;99.90;;;;;;4155961;28;20271;-38
2020/12/15 08:47:18;;;;;;;10.70;5.50;;;4.10;99.90;;;;;;4156071;28;20287;-36
2020/12/15 08:49:20;;;;;;;9.10;5.70;;;4.10;99.90;;;;;;4157621;28;20294;-42
2020/12/15 08:51:23;;;;;;;15.20;5.87;;;4.10;99.90;;;;;;4140671;28;20341;-40
2020/12/15 08:53:24;;;;;;;12.70;7.70;;;4.10;99.90;;;;;;4146113;28;20801;-40
2020/12/15 08:55:28;;;;;;;16.87;7.50;;;4.10;99.90;;;;;;4156674;28;20274;-37
2020/12/15 08:57:29;;;;;;;17.10;8.20;;;4.10;99.90;;;;;;4155871;28;20337;-44
2020/12/15 08:59:33;;;;;;;17.93;9.03;;;4.10;99.90;;;;;;4157412;28;20800;-41
2020/12/15 09:01:34;;;;;;;19.47;10.33;;;4.10;99.90;;;;;;4146229;28;20268;-45
2020/12/15 09:03:46;;;;;;;17.10;9.67;;;4.10;99.90;;;;;;4141324;28;20755;-42
2020/12/15 09:05:53;;;;;;;25.77;12.23;;;4.10;99.90;;;;;;4140642;28;20314;-39
2020/12/15 09:08:01;;;;;;;16.53;8.97;;;4.10;99.90;;;;;;4147463;28;20266;-37
2020/12/15 09:10:17;;;;;;;19.13;10.70;;;4.10;99.90;;;;;;4154411;28;20328;-36
2020/12/15 09:12:18;;;;;;;18.73;9.80;;;4.10;99.90;;;;;;4157290;28;20336;-36
2020/12/15 09:14:19;;;;;;;20.77;9.67;;;4.00;99.90;;;;;;4155187;28;20278;-41
2020/12/15 09:16:29;;;;;;;25.77;10.40;;;4.10;99.90;;;;;;4157937;28;20274;-37
2020/12/15 09:18:32;;;;;;;16.20;7.30;;;4.10;99.90;;;;;;4156915;28;20259;-38
2020/12/15 09:20:33;;;;;;;18.13;9.00;;;4.10;99.90;;;;;;4157305;28;20275;-42
2020/12/15 09:22:42;;;;;;;13.97;7.83;;;4.10;99.90;;;;;;4138191;28;20291;-47
2020/12/15 09:24:43;;;;;;;16.00;8.77;;;4.10;99.90;;;;;;4139442;28;20276;-52
2020/12/15 09:26:47;;;;;;;19.67;9.67;;;4.10;99.90;;;;;;4165614;22;20329;-46
2020/12/15 09:28:50;;;;;;;21.53;8.93;;;4.10;99.90;;;;;;4135551;28;20311;-46
2020/12/15 09:30:53;;;;;;;14.57;7.57;;;4.20;99.90;;;;;;4129978;28;20280;-45
2020/12/15 09:32:56;;;;;;;14.83;7.80;;;4.20;99.90;;;;;;4139981;28;20326;-51
2020/12/15 09:34:57;;;;;;;15.00;8.63;;;4.20;99.90;;;;;;4140078;28;20272;-58
2020/12/15 09:36:59;;;;;;;17.47;8.03;;;4.20;99.90;;;;;;4133679;28;20284;-49
2020/12/15 09:39:02;;;;;;;14.93;7.93;;;4.20;99.90;;;;;;4156338;28;20267;-42
2020/12/15 09:41:05;;;;;;;16.23;8.17;;;4.20;99.90;;;;;;4140445;28;20322;-38
2020/12/15 09:43:10;;;;;;;20.10;8.13;;;4.20;99.90;;;;;;4139027;28;20347;-43
2020/12/15 09:45:12;;;;;;;17.60;8.67;;;4.20;99.90;;;;;;4138005;28;20275;-44
2020/12/15 09:47:13;;;;;;;16.90;8.67;;;4.30;99.90;;;;;;4130424;28;20271;-42
2020/12/15 09:49:15;;;;;;;13.13;6.80;;;4.20;99.90;;;;;;4141349;28;20357;-53
2020/12/15 09:51:17;;;;;;;17.73;7.90;;;4.20;99.90;;;;;;4123744;28;20747;-52
2020/12/15 09:53:18;;;;;;;16.07;8.57;;;4.20;99.90;;;;;;4136217;28;20341;-37
2020/12/15 09:55:19;;;;;;;13.63;8.17;;;4.20;99.90;;;;;;4138409;28;20267;-43
2020/12/15 09:57:20;;;;;;;17.33;7.87;;;4.20;99.90;;;;;;4138738;28;20287;-41
2020/12/15 09:59:22;;;;;;;22.33;9.70;;;4.20;99.90;;;;;;4138086;28;20742;-37
2020/12/15 10:01:23;;;;;;;17.80;9.30;;;4.30;99.90;;;;;;4138704;28;20317;-48
2020/12/15 10:03:26;;;;;;;17.93;8.83;;;4.30;99.90;;;;;;4140156;28;20768;-57
2020/12/15 10:05:29;;;;;;;19.00;9.10;;;4.30;99.90;;;;;;4136321;28;20280;-44
2020/12/15 10:07:32;;;;;;;14.50;7.90;;;4.30;99.90;;;;;;4139056;28;20280;-53
2020/12/15 10:09:34;;;;;;;16.73;7.83;;;4.30;99.90;;;;;;4130210;28;20299;-38
2020/12/15 10:11:40;;;;;;;14.03;7.60;;;4.30;99.90;;;;;;4126287;28;20712;-41
2020/12/15 10:13:41;;;;;;;13.77;6.70;;;4.30;99.90;;;;;;4125861;28;20365;-53
2020/12/15 10:15:45;;;;;;;15.93;7.70;;;4.30;99.90;;;;;;4128840;28;20284;-47
2020/12/15 10:17:47;;;;;;;19.73;8.57;;;4.30;99.90;;;;;;4125644;28;20395;-47
2020/12/15 10:19:50;;;;;;;18.50;8.10;;;4.40;99.90;;;;;;4133573;28;20283;-47
2020/12/15 10:21:55;;;;;;;19.17;9.83;;;4.30;99.90;;;;;;4157541;28;20271;-39
2020/12/15 10:24:00;;;;;;;20.53;9.80;;;4.30;99.90;;;;;;4141018;28;20338;-35
2020/12/15 10:26:06;;;;;;;23.13;10.77;;;4.30;99.90;;;;;;4124501;28;20330;-43
2020/12/15 10:28:09;;;;;;;20.80;9.80;;;4.30;99.90;;;;;;4140614;28;20292;-45
2020/12/15 10:30:10;;;;;;;17.33;8.77;;;4.30;99.90;;;;;;4136279;28;20382;-35
2020/12/15 10:32:12;;;;;;;21.70;10.47;;;4.30;99.90;;;;;;4126869;28;20768;-42
2020/12/15 10:34:13;;;;;;;23.30;9.13;;;4.30;99.90;;;;;;4125117;28;20383;-43
2020/12/15 10:36:16;;;;;;;24.40;10.77;;;4.40;99.90;;;;;;4126256;28;20803;-40